Aviation Digital Data Service (ADDS)

Output produced by METARs form (1616 UTC 01 October 2014)
found at http://www.aviationweather.gov/adds/metars/
 
KIPT 011608Z 13004KT 10SM BKN015 OVC085 18/14 A3006 RMK AO2 T01830144
KIPT 011601Z 12003KT 10SM OVC100 19/14 A3006 RMK AO2 T01890144
KIPT 011554Z 13003KT 10SM BKN012 BKN085 OVC100 19/14 A3006 RMK AO2 SLP178 T01890144
KIPT 011454Z 14004KT 6SM HZ OVC010 18/15 A3007 RMK AO2 CIG 006V014 SLP181 T01780150 51017
KIPT 011404Z 00000KT 6SM BR SCT005 BKN008 OVC100 17/15 A3006 RMK AO2 T01720150
KIPT 011354Z 00000KT 8SM SCT005 BKN014 OVC080 17/14 A3005 RMK AO2 SLP176 T01720144
KIPT 011344Z 00000KT 7SM BKN005 OVC014 17/14 A3005 RMK AO2 T01670144
KIPT 011332Z 00000KT 6SM BR OVC006 17/14 A3005 RMK AO2 T01670144
KIPT 011301Z 11003KT 7SM BR BKN005 17/14 A3004 RMK AO2 T01670144
KIPT 011254Z 00000KT 6SM BR SCT005 BKN008 17/14 A3003 RMK AO2 SLP169 T01720144
KIPT 011154Z 00000KT 4SM BR SCT005 BKN008 OVC085 16/14 A3002 RMK AO2 SLP163 60002 70006 T01610144 10172 20156
KIPT 011129Z 00000KT 4SM BR SCT005 BKN008 OVC085 16/14 A3001 RMK AO2 T01610144
KIPT 011118Z 00000KT 4SM BR SCT003 BKN005 OVC085 16/14 A3000 RMK AO2 T01610144 $
KIPT 011054Z 00000KT 6SM BR BKN003 OVC085 16/14 A3000 RMK AO2 SLP156 T01610144 $
KIPT 011005Z AUTO 00000KT 7SM BKN005 OVC090 16/14 A2998 RMK AO2 T01560144 $
KIPT 010954Z AUTO 00000KT 6SM BR SCT005 OVC090 16/14 A2997 RMK AO2 SLP148 T01560144 $
KIPT 010920Z AUTO 00000KT 7SM FEW008 BKN085 OVC120 16/14 A2998 RMK AO2 T01560144 $
KIPT 010901Z AUTO 11003KT 10SM SCT010 BKN110 16/14 A2997 RMK AO2 T01610139
KIPT 010854Z AUTO 10003KT 10SM BKN010 BKN110 16/14 A2997 RMK AO2 RAE37 CIG 006V011 SLP147 P0002 60002 T01610144 56001
KIPT 010849Z AUTO 09003KT 10SM SCT008 OVC110 16/14 A2997 RMK AO2 RAE37 P0002
KIPT 010754Z AUTO 01003KT 9SM -RA OVC090 17/14 A2997 RMK AO2 RAB40 SLP145 P0000 T01670144
KIPT 010654Z AUTO 18004KT 10SM OVC080 17/14 A2998 RMK AO2 RAE22 SLP148 P0000 T01720139
KIPT 010617Z AUTO 06004KT 10SM -RA SCT008 BKN070 OVC085 17/14 A2998 RMK AO2 P0000 T01720144
KIPT 010554Z AUTO 07003KT 10SM -RA OVC085 17/14 A2998 RMK AO2 SLP149 P0003 60004 T01670144 10189 20167 51014
KIPT 010528Z AUTO 16003KT 10SM -RA SCT020 OVC080 17/15 A2998 RMK AO2 P0002 T01720150
KIPT 010512Z AUTO 10003KT 10SM -RA FEW013 BKN020 OVC090 17/15 A2997 RMK AO2 LTG DSNT NW P0001 T01720150
KIPT 010454Z AUTO 11005KT 10SM -RA BKN013 OVC080 18/14 A2997 RMK AO2 LTG DSNT NW RAB04 TSB23 SLP145 P0001 T01780144 402390139
KIPT 010444Z AUTO 09006KT 10SM -RA OVC015 18/15 A2996 RMK AO2 LTG DSNT W AND NW RAB04 TSB23 P0001 T01780150
KIPT 010429Z AUTO VRB03KT 10SM -TSRA BKN016 OVC023 18/15 A2996 RMK AO2 LTG DSNT W AND NW RAB04 TSB23 P0000 T01830150
KIPT 010354Z AUTO VRB04KT 8SM VCTS SCT018 BKN025 OVC060 18/16 A2995 RMK AO2 LTG DSNT ALQDS TSB36E51 SLP139 T01780156
KIPT 010336Z AUTO 16003KT 8SM TS SCT017 BKN025 OVC047 18/16 A2995 RMK AO2 LTG DSNT S AND NW TSB36 T01780156
KIPT 010301Z AUTO 00000KT 6SM VCTS BR BKN041 BKN050 BKN120 17/16 A2993 RMK AO2 LTG DSNT S AND NW T01720156
KIPT 010254Z AUTO 00000KT 6SM BR BKN041 BKN048 17/16 A2994 RMK AO2 LTG DSNT SE AND S AND NW SLP136 T01720156 53012
KIPT 010226Z AUTO 24003KT 8SM VCTS FEW041 BKN120 18/16 A2993 RMK AO2 LTG DSNT S AND NW T01780156
KIPT 010154Z 00000KT 7SM BKN045 OVC075 17/16 A2993 RMK AO2 LTG DSNT NW SLP132 T01720156
KIPT 010054Z 10004KT 10SM FEW060 18/15 A2991 RMK AO2 LTG DSNT S SLP126 T01780150
KIPT 302354Z 08004KT 10SM FEW034 OVC060 19/16 A2990 RMK AO2 SLP124 T01890156 10239 20189 53015
KIPT 302254Z 00000KT 8SM FEW085 19/16 A2988 RMK AO2 SLP118 T01940161
KIPT 302214Z VRB04KT 10SM FEW039 BKN060 22/15 A2988 RMK AO2 T02220150
KIPT 302154Z VRB04KT 10SM VCTS BKN065 22/16 A2986 RMK AO2 SLP110 T02170156
KIPT 302054Z VRB03KT 10SM BKN060 22/16 A2986 RMK AO2 LTG DSNT NE SLP108 T02220156 56005
KIPT 301954Z 13008KT 9SM SCT029 BKN060 23/16 A2986 RMK AO2 SLP110 T02280156
KIPT 301950Z 11005KT 9SM SCT029 BKN060 23/16 A2986 RMK AO2
KIPT 301854Z 00000KT 10SM BKN024 BKN031 BKN060 23/16 A2987 RMK AO2 SLP113 T02280156
KIPT 301852Z VRB03KT 10SM BKN024 BKN031 BKN080 23/16 A2987 RMK AO2
KIPT 301754Z 27003KT 8SM SCT019 OVC055 21/15 A2990 RMK AO2 SLP121 T02060150 10206 20150 56006
KIPT 301752Z 25003KT 8SM SCT019 OVC055 21/15 A2990 RMK AO2
KIPT 301654Z VRB03KT 7SM OVC016 20/15 A2991 RMK AO2 SLP127 T02000150
KIPT 301554Z 14003KT 6SM HZ OVC014 19/15 A2991 RMK AO2 SLP128 T01940150
KIPT 301454Z 00000KT 9SM SCT006 OVC012 18/14 A2991 RMK AO2 SLP129 T01780144 58002
KIPT 301418Z 00000KT 6SM BR SCT006 OVC012 16/14 A2992 RMK AO2 T01610144
KIPT 301401Z 13004KT 6SM BR BKN006 OVC012 16/14 A2993 RMK AO2 T01610139
KIPT 301354Z VRB03KT 1 1/2SM BR BKN003 BKN006 OVC012 16/14 A2993 RMK AO2 SLP133 T01560139
KIPT 301340Z 12003KT 1 1/2SM BR BKN003 BKN006 OVC012 16/14 A2993 RMK AO2 T01560139
KIPT 301326Z COR 14003KT 1 1/2SM BR BKN0036 BKN012 16/14 A2993
KIPT 301315Z 13003KT 1 1/2SM BR BKN004 OVC012 15/14 A2993 RMK AO2 CIG 002V007 T01500139
KIPT 301254Z 00000KT 2SM BR OVC002 15/14 A2993 RMK AO2 SLP133 T01500139
KIPT 301247Z 00000KT 1 1/4SM BR OVC002 15/14 A2993 RMK AO2 T01500139
KIPT 301154Z 00000KT 1/2SM FG VV002 14/13 A2992 RMK AO2 SLP131 T01440133 10156 20139 53008
KIPT 301113Z 00000KT 1/2SM FG VV002 14/13 A2991 RMK AO2 T01440133
KIPT 301054Z 35003KT 1/4SM FG VV002 14/13 A2991 RMK AO2 SLP126 T01440133
KIPT 300954Z AUTO 36004KT 1/4SM FG VV002 14/13 A2990 RMK AO2 SLP122 T01440133
KIPT 300919Z AUTO 34003KT 1/2SM FG VV002 14/13 A2990 RMK AO2 T01440133
KIPT 300854Z AUTO 00000KT 1/4SM FG VV002 14/13 A2990 RMK AO2 SLP122 T01440133 56002
KIPT 300844Z AUTO 34003KT 1/2SM FG VV002 14/13 A2990 RMK AO2 T01390133
KIPT 300803Z AUTO 36003KT 1/4SM FG VV002 14/13 A2990 RMK AO2 T01440133
KIPT 300754Z AUTO 35003KT 1/2SM FG VV002 14/13 A2990 RMK AO2 SLP122 T01440133
KIPT 300738Z AUTO 35003KT 3/4SM BR OVC002 14/13 A2990 RMK AO2 T01440133
KIPT 300731Z AUTO 00000KT 2SM BR OVC002 14/13 A2990 RMK AO2 VIS 1 1/2V3 T01440133
KIPT 300711Z AUTO 00000KT 1 3/4SM BR OVC002 15/14 A2990 RMK AO2 VIS 1 1/4V2 T01500139
KIPT 300654Z AUTO 00000KT 3/4SM BR VV002 15/14 A2990 RMK AO2 SLP123 T01500139
KIPT 300652Z AUTO 00000KT 3/4SM BR VV002 15/14 A2990 RMK AO2
KIPT 300624Z AUTO 00000KT 1 3/4SM BR OVC003 15/14 A2991 RMK AO2 T01500139
KIPT 300554Z AUTO 00000KT 9SM OVC004 16/14 A2991 RMK AO2 SLP125 T01560139 10222 20144 53001
KIPT 300506Z AUTO 00000KT 8SM BKN003 OVC060 16/14 A2990 RMK AO2 T01560139
KIPT 300454Z AUTO 00000KT 2SM BR BKN004 BKN060 16/14 A2990 RMK AO2 VIS 1 1/4V4 SLP123 T01560139 402500144
KIPT 300444Z AUTO 00000KT 3SM BR FEW004 BKN060 16/14 A2990 RMK AO2 T01560139
KIPT 300420Z AUTO 00000KT 2 1/2SM BR CLR 15/14 A2990 RMK AO2 T01500139